Archival Weather

Norman Y Mineta San Jose Intl

San Jose, California (KSJC)

Report from: Wednesday, April 3, 2024 10:53 PM PDT
Current time: Tuesday, May 21, 2024 9:39 AM PDT

Current weather – Weather history – Daily summaries
Weather forecast

Temperature11.7°C (53.1°F)
Dew point4.4°C (39.9°F)
Winds 11 kts (5.7 m/s, 12.7 mph) Northwest (310°)
Visibility10 mi. (16.1 km)
Clouds Ceiling: Overcast 4,100 ft. (1,250 m)
Altimeter30.02 in.Hg (1017 mB)
Relative humidity61 %
Density altitude-380 ft. (-116 m)
Sea-level pressure101.7 kPa (1017 mB, 30.02 in.Hg)
Max temp last 6 hours17.2°C (63.0°F)
Min temp last 6 hours11.7°C (53.1°F)
Remarks Automated weather observing station with precipitation discriminator
Pressure falling more quickly
Flight conditions Visual Meteorological Conditions
Raw dataKSJC 040553Z 31011KT 10SM OVC041 12/04 A3002 RMK AO2 SLP165 T01170044 10172 20117 58007
An error has occurred. This application may no longer respond until reloaded. Reload 🗙